Time;durP1;ratioP1;P1;durP2;ratioP2;P2;SDS_P1;SDS_P2;PMS_P1;PMS_P2;Temp;Humidity;BMP_temperature;BMP_pressure;BME280_temperature;BME280_humidity;BME280_pressure;Samples;Min_cycle;Max_cycle;Signal;HPM_P1;HPM_P2
2022/11/13 00:01:20;;;;;;;100.10;40.60;;;;;;;5.00;100.00;100521.20;106047;1275;59766;-80
2022/11/13 00:03:47;;;;;;;150.00;44.20;;;;;;;4.98;100.00;100514.55;106227;1289;75668;-81
2022/11/13 00:06:15;;;;;;;99.20;42.10;;;;;;;4.99;100.00;100515.77;106343;1285;59789;-80
2022/11/13 00:08:42;;;;;;;118.10;42.20;;;;;;;5.00;100.00;100511.52;106312;1285;73634;-79
2022/11/13 00:11:13;;;;;;;93.50;42.10;;;;;;;5.01;100.00;100512.58;106347;1285;59872;-80
2022/11/13 00:13:41;;;;;;;121.90;42.70;;;;;;;5.01;100.00;100512.91;106295;1293;59589;-80
2022/11/13 00:16:14;;;;;;;149.90;41.20;;;;;;;5.00;100.00;100511.88;106329;1284;68007;-80
2022/11/13 00:18:42;;;;;;;124.10;41.40;;;;;;;5.00;100.00;100508.88;106142;1285;59788;-81
2022/11/13 00:21:17;;;;;;;94.50;39.80;;;;;;;5.01;100.00;100505.33;106390;1278;63902;-80
2022/11/13 00:23:43;;;;;;;95.90;43.20;;;;;;;5.02;100.00;100509.35;106047;1291;59971;-79
2022/11/13 00:26:16;;;;;;;98.90;43.10;;;;;;;5.03;100.00;100508.30;106344;1286;59656;-80
2022/11/13 00:28:43;;;;;;;141.20;44.40;;;;;;;5.05;100.00;100507.55;106350;1285;67725;-81
2022/11/13 00:31:12;;;;;;;166.10;44.30;;;;;;;5.07;100.00;100513.85;106346;1276;69616;-79
2022/11/13 00:33:40;;;;;;;167.40;41.90;;;;;;;5.07;100.00;100506.97;106347;1286;73202;-78
2022/11/13 00:36:15;;;;;;;89.60;39.30;;;;;;;5.07;100.00;100506.63;106352;1284;59786;-80
2022/11/13 00:38:42;;;;;;;124.90;41.00;;;;;;;5.07;100.00;100510.33;106371;1278;60154;-78
2022/11/13 00:41:09;;;;;;;89.40;40.00;;;;;;;5.07;100.00;100506.27;106355;1285;76676;-80
2022/11/13 00:43:36;;;;;;;127.20;38.50;;;;;;;5.07;100.00;100510.34;106343;1285;59859;-80
2022/11/13 00:46:03;;;;;;;104.00;39.20;;;;;;;5.06;100.00;100508.58;106328;1284;71648;-76
2022/11/13 00:48:29;;;;;;;104.10;39.00;;;;;;;5.06;100.00;100507.34;106085;1281;59623;-79
2022/11/13 00:50:56;;;;;;;101.30;38.70;;;;;;;5.05;100.00;100503.30;106381;1285;59497;-80
2022/11/13 00:53:22;;;;;;;103.40;40.70;;;;;;;5.06;100.00;100504.19;106373;1278;68017;-79
2022/11/13 00:55:49;;;;;;;106.00;38.10;;;;;;;5.06;100.00;100502.77;106410;1284;60322;-80
2022/11/13 00:58:16;;;;;;;113.70;38.80;;;;;;;5.07;100.00;100500.81;106354;1286;63900;-80
2022/11/13 01:00:44;;;;;;;121.50;39.80;;;;;;;5.05;100.00;100497.68;106341;1293;59698;-80
2022/11/13 01:03:12;;;;;;;102.10;40.00;;;;;;;5.03;100.00;100500.20;106357;1285;59792;-79
2022/11/13 01:05:41;;;;;;;100.60;41.60;;;;;;;5.04;100.00;100503.34;106331;1284;75478;-80
2022/11/13 01:08:09;;;;;;;103.20;44.10;;;;;;;5.06;100.00;100504.02;106364;1284;68469;-79
2022/11/13 01:10:41;;;;;;;110.40;44.60;;;;;;;5.08;100.00;100499.21;106343;1285;73885;-80
2022/11/13 01:13:07;;;;;;;121.60;42.10;;;;;;;5.10;100.00;100496.52;106378;1288;59510;-79
2022/11/13 01:15:38;;;;;;;99.80;42.00;;;;;;;5.12;100.00;100495.98;106386;1284;59705;-80
2022/11/13 01:18:06;;;;;;;119.50;46.90;;;;;;;5.12;100.00;100491.20;106363;1285;65306;-80
2022/11/13 01:20:34;;;;;;;104.00;41.40;;;;;;;5.14;100.00;100490.83;106353;1278;60296;-80
2022/11/13 01:23:00;;;;;;;101.30;45.50;;;;;;;5.14;100.00;100487.10;106356;1285;64029;-80
2022/11/13 01:25:28;;;;;;;113.90;50.80;;;;;;;5.16;100.00;100482.84;106303;1278;59923;-81
2022/11/13 01:27:54;;;;;;;116.30;53.10;;;;;;;5.18;100.00;100481.02;106040;1286;59800;-80
2022/11/13 01:30:21;;;;;;;119.00;47.00;;;;;;;5.20;100.00;100481.16;106255;1284;68017;-80
2022/11/13 01:32:47;;;;;;;130.90;46.30;;;;;;;5.21;100.00;100482.02;106379;1285;60998;-79
2022/11/13 01:35:14;;;;;;;150.70;45.00;;;;;;;5.22;100.00;100483.59;106349;1278;59681;-79
2022/11/13 01:37:40;;;;;;;164.60;47.30;;;;;;;5.21;100.00;100478.68;106326;1285;59732;-80
2022/11/13 01:40:11;;;;;;;156.00;47.20;;;;;;;5.21;100.00;100478.67;106352;1278;59507;-80
2022/11/13 01:42:37;;;;;;;153.70;45.30;;;;;;;5.22;100.00;100473.55;106343;1285;66525;-80
2022/11/13 01:45:43;;;;;;;132.40;45.20;;;;;;;5.23;100.00;100474.05;106342;1284;60202;-80
2022/11/13 01:48:11;;;;;;;133.10;43.60;;;;;;;5.24;100.00;100467.52;106350;1291;73827;-80
2022/11/13 01:50:38;;;;;;;129.40;46.80;;;;;;;5.24;100.00;100462.06;106329;1284;60040;-80
2022/11/13 01:53:06;;;;;;;125.40;45.80;;;;;;;5.25;100.00;100461.68;106143;1288;59702;-81
2022/11/13 01:55:32;;;;;;;109.60;47.00;;;;;;;5.26;100.00;100457.77;106331;1285;66865;-80
2022/11/13 01:58:01;;;;;;;135.10;45.20;;;;;;;5.26;100.00;100453.88;106386;1284;59667;-80
2022/11/13 02:00:28;;;;;;;112.20;45.50;;;;;;;5.26;100.00;100452.31;106349;1285;64115;-78
2022/11/13 02:02:55;;;;;;;122.00;46.70;;;;;;;5.25;100.00;100451.27;106352;1285;59607;-80
2022/11/13 02:05:21;;;;;;;132.00;47.70;;;;;;;5.26;100.00;100454.06;106387;1284;60213;-79
2022/11/13 02:07:48;;;;;;;109.30;41.00;;;;;;;5.27;100.00;100449.11;106339;1286;66563;-79
2022/11/13 02:10:15;;;;;;;111.50;45.10;;;;;;;5.25;100.00;100455.34;106367;1278;61243;-80
2022/11/13 02:12:48;;;;;;;130.80;48.30;;;;;;;5.23;100.00;100458.02;106375;1278;62960;-80
2022/11/13 02:15:18;;;;;;;119.40;46.30;;;;;;;5.23;100.00;100458.01;106337;1284;59687;-80
2022/11/13 02:17:47;;;;;;;119.50;46.00;;;;;;;5.24;100.00;100457.30;106404;1286;59585;-80
2022/11/13 02:20:16;;;;;;;127.50;49.70;;;;;;;5.26;100.00;100459.37;106367;1278;68012;-79
2022/11/13 02:22:55;;;;;;;123.50;45.90;;;;;;;5.27;100.00;100460.21;106294;1279;60381;-79
2022/11/13 02:25:24;;;;;;;105.20;46.40;;;;;;;5.29;100.00;100459.48;106340;1278;65086;-78
2022/11/13 02:27:50;;;;;;;120.30;45.50;;;;;;;5.28;100.00;100460.70;106332;1286;59774;-80
2022/11/13 02:30:23;;;;;;;120.40;48.80;;;;;;;5.30;100.00;100460.69;106355;1286;59646;-80
2022/11/13 02:32:52;;;;;;;127.40;47.30;;;;;;;5.31;100.00;100459.24;106333;1286;66542;-80
2022/11/13 02:35:23;;;;;;;127.90;45.60;;;;;;;5.32;100.00;100452.36;106352;1285;61260;-80
2022/11/13 02:37:49;;;;;;;122.50;46.50;;;;;;;5.32;100.00;100450.07;106311;1284;64167;-80
2022/11/13 02:40:17;;;;;;;121.90;42.90;;;;;;;5.32;100.00;100447.60;106328;1284;59643;-78
2022/11/13 02:42:44;;;;;;;131.70;44.20;;;;;;;5.31;100.00;100448.67;106353;1278;59739;-80
2022/11/13 02:45:10;;;;;;;113.70;41.10;;;;;;;5.28;100.00;100444.86;106397;1284;65411;-80
2022/11/13 02:47:37;;;;;;;127.70;41.20;;;;;;;5.26;100.00;100447.54;106354;1285;60968;-81
2022/11/13 02:50:04;;;;;;;127.70;39.30;;;;;;;5.26;100.00;100453.37;106317;1284;59845;-81
2022/11/13 02:52:31;;;;;;;126.30;41.90;;;;;;;5.25;100.00;100451.09;106343;1289;59725;-81
2022/11/13 02:54:57;;;;;;;115.20;40.80;;;;;;;5.25;100.00;100447.75;106371;1285;59752;-80
2022/11/13 02:57:24;;;;;;;115.20;39.40;;;;;;;5.25;100.00;100450.37;106364;1285;66023;-80
2022/11/13 02:59:50;;;;;;;103.70;39.30;;;;;;;5.27;100.00;100454.94;106376;1284;61256;-80
2022/11/13 03:02:17;;;;;;;116.10;41.90;;;;;;;5.26;100.00;100454.07;106352;1285;65234;-80
2022/11/13 03:04:45;;;;;;;126.90;42.20;;;;;;;5.24;100.00;100449.89;106350;1285;59828;-81
2022/11/13 03:07:12;;;;;;;120.90;41.40;;;;;;;5.24;100.00;100453.08;106351;1285;59705;-80
2022/11/13 03:09:39;;;;;;;140.30;43.90;;;;;;;5.24;100.00;100456.23;106358;1285;76954;-80
2022/11/13 03:12:06;;;;;;;139.80;44.80;;;;;;;5.26;100.00;100458.30;106354;1290;59667;-81
2022/11/13 03:14:33;;;;;;;113.70;44.10;;;;;;;5.28;100.00;100457.56;106331;1285;72876;-81
2022/11/13 03:17:00;;;;;;;107.80;42.80;;;;;;;5.28;100.00;100458.08;106355;1285;59728;-81
2022/11/13 03:19:27;;;;;;;115.70;42.90;;;;;;;5.28;100.00;100453.49;106344;1290;59652;-81
2022/11/13 03:21:54;;;;;;;99.20;41.80;;;;;;;5.27;100.00;100452.47;106398;1284;68025;-79
2022/11/13 03:24:20;;;;;;;103.80;41.80;;;;;;;5.26;100.00;100453.54;106053;1286;60021;-80
2022/11/13 03:26:47;;;;;;;92.40;39.70;;;;;;;5.25;100.00;100454.98;106359;1285;63748;-81
2022/11/13 03:29:14;;;;;;;96.90;42.00;;;;;;;5.25;100.00;100454.11;106344;1284;59792;-80
2022/11/13 03:31:40;;;;;;;99.70;42.50;;;;;;;5.25;100.00;100453.39;106335;1278;59532;-80
2022/11/13 03:34:07;;;;;;;98.80;40.20;;;;;;;5.26;100.00;100451.79;106380;1282;67854;-79
2022/11/13 03:36:33;;;;;;;87.00;37.40;;;;;;;5.26;100.00;100449.50;106355;1284;59737;-79
2022/11/13 03:39:00;;;;;;;81.60;35.60;;;;;;;5.25;100.00;100444.77;106349;1286;60081;-79
2022/11/13 03:41:26;;;;;;;76.10;34.10;;;;;;;5.24;100.00;100447.08;106287;1287;59806;-79
2022/11/13 03:43:53;;;;;;;78.60;34.90;;;;;;;5.25;100.00;100447.73;106338;1285;59717;-80
2022/11/13 03:46:19;;;;;;;79.60;36.80;;;;;;;5.27;100.00;100444.55;106349;1290;76460;-80
2022/11/13 03:48:46;;;;;;;87.20;37.70;;;;;;;5.28;100.00;100448.57;106349;1278;62050;-80
2022/11/13 03:51:13;;;;;;;83.30;36.90;;;;;;;5.29;100.00;100449.77;106339;1285;72375;-80
2022/11/13 03:53:39;;;;;;;76.60;35.30;;;;;;;5.30;100.00;100453.13;106099;1288;59766;-79
2022/11/13 03:56:06;;;;;;;84.50;37.30;;;;;;;5.30;100.00;100455.41;106397;1278;59587;-80
2022/11/13 03:58:33;;;;;;;79.80;37.00;;;;;;;5.30;100.00;100459.82;106360;1285;74987;-80
2022/11/13 04:00:59;;;;;;;72.10;35.30;;;;;;;5.31;100.00;100460.68;106364;1285;68796;-80
2022/11/13 04:03:26;;;;;;;69.90;33.40;;;;;;;5.31;100.00;100458.73;106335;1290;59939;-82
2022/11/13 04:05:52;;;;;;;77.40;37.00;;;;;;;5.33;100.00;100458.16;106350;1285;59755;-80
2022/11/13 04:08:19;;;;;;;73.90;34.40;;;;;;;5.33;100.00;100460.45;106263;1284;59685;-80
2022/11/13 04:10:46;;;;;;;73.50;34.20;;;;;;;5.33;100.00;100458.16;106325;1282;67804;-80
2022/11/13 04:13:12;;;;;;;79.20;36.90;;;;;;;5.34;100.00;100451.98;106374;1284;60122;-80
2022/11/13 04:15:39;;;;;;;73.30;37.40;;;;;;;5.34;100.00;100450.90;106329;1285;64052;-80
2022/11/13 04:18:06;;;;;;;82.40;38.60;;;;;;;5.35;100.00;100452.83;106360;1292;59741;-79
2022/11/13 04:20:34;;;;;;;84.50;39.70;;;;;;;5.36;100.00;100449.63;106380;1283;59922;-80
2022/11/13 04:23:06;;;;;;;89.00;41.00;;;;;;;5.37;100.00;100450.48;106174;1284;209446;-80
2022/11/13 04:25:34;;;;;;;91.90;42.10;;;;;;;5.37;100.00;100453.30;106379;1284;61701;-79
2022/11/13 04:28:00;;;;;;;89.50;47.30;;;;;;;5.37;100.00;100451.89;106342;1293;65331;-79
2022/11/13 04:30:27;;;;;;;91.40;42.60;;;;;;;5.37;100.00;100452.95;106385;1286;59779;-79
2022/11/13 04:32:54;;;;;;;99.20;45.60;;;;;;;5.37;100.00;100452.96;106369;1284;59716;-80
2022/11/13 04:35:20;;;;;;;109.50;55.20;;;;;;;5.37;100.00;100454.54;106347;1284;67867;-80
2022/11/13 04:37:47;;;;;;;94.80;45.80;;;;;;;5.38;100.00;100454.70;106366;1284;61328;-80
2022/11/13 04:40:13;;;;;;;93.40;43.90;;;;;;;5.38;100.00;100453.63;106318;1284;64179;-79
2022/11/13 04:42:49;;;;;;;93.50;42.90;;;;;;;5.38;100.00;100450.12;106318;1285;60083;-80
2022/11/13 04:45:18;;;;;;;106.10;43.40;;;;;;;5.38;100.00;100448.17;106346;1286;59697;-80
2022/11/13 04:47:45;;;;;;;94.30;42.10;;;;;;;5.38;100.00;100448.70;106292;1289;67629;-80
2022/11/13 04:50:13;;;;;;;97.30;43.60;;;;;;;5.38;100.00;100449.08;106346;1281;60402;-79
2022/11/13 04:52:40;;;;;;;104.00;45.90;;;;;;;5.38;100.00;100449.58;106094;1289;73009;-79
2022/11/13 04:55:07;;;;;;;97.00;43.60;;;;;;;5.39;100.00;100450.61;106363;1278;60072;-80
2022/11/13 04:57:34;;;;;;;93.60;44.30;;;;;;;5.39;100.00;100455.91;106379;1284;59782;-78
2022/11/13 05:00:03;;;;;;;88.40;45.30;;;;;;;5.36;100.00;100450.34;106348;1278;75053;-80
2022/11/13 05:02:29;;;;;;;92.50;43.70;;;;;;;5.34;100.00;100454.95;106267;1289;68716;-80
2022/11/13 05:04:56;;;;;;;98.50;46.40;;;;;;;5.33;100.00;100457.27;106353;1285;72630;-80
2022/11/13 05:07:22;;;;;;;96.70;47.20;;;;;;;5.31;100.00;100460.31;106335;1286;59994;-80
2022/11/13 05:09:49;;;;;;;93.80;43.10;;;;;;;5.31;100.00;100458.20;106335;1292;60433;-78
2022/11/13 05:12:15;;;;;;;87.50;44.60;;;;;;;5.28;100.00;100456.67;106342;1285;60283;-80
2022/11/13 05:14:42;;;;;;;99.30;47.00;;;;;;;5.25;100.00;100451.97;106356;1284;60262;-80
2022/11/13 05:17:11;;;;;;;95.50;43.40;;;;;;;5.25;100.00;100451.09;106340;1278;62883;-80
2022/11/13 05:19:38;;;;;;;89.40;44.00;;;;;;;5.25;100.00;100455.52;106360;1284;59647;-80
2022/11/13 05:22:05;;;;;;;93.20;45.70;;;;;;;5.23;100.00;100459.79;106372;1283;59779;-80
2022/11/13 05:24:32;;;;;;;100.70;48.80;;;;;;;5.22;100.00;100460.17;106374;1278;67587;-80
2022/11/13 05:26:58;;;;;;;99.10;47.40;;;;;;;5.22;100.00;100454.52;106107;1284;60136;-80
2022/11/13 05:29:25;;;;;;;99.80;47.60;;;;;;;5.23;100.00;100447.11;106327;1285;65086;-80
2022/11/13 05:31:51;;;;;;;101.50;45.70;;;;;;;5.23;100.00;100446.73;106342;1292;59713;-81
2022/11/13 05:34:18;;;;;;;102.10;44.40;;;;;;;5.24;100.00;100453.78;106345;1284;59824;-80
2022/11/13 05:36:44;;;;;;;104.80;41.00;;;;;;;5.25;100.00;100453.73;106362;1284;67915;-80
2022/11/13 05:39:11;;;;;;;97.80;38.20;;;;;;;5.27;100.00;100451.39;106291;1284;61201;-80
2022/11/13 05:41:37;;;;;;;83.90;36.10;;;;;;;5.30;100.00;100450.66;106395;1278;65256;-80
2022/11/13 05:44:04;;;;;;;87.10;36.40;;;;;;;5.29;100.00;100451.35;106340;1285;59791;-80
2022/11/13 05:46:30;;;;;;;89.20;36.70;;;;;;;5.30;100.00;100450.48;106350;1278;59546;-80
2022/11/13 05:48:59;;;;;;;91.20;33.70;;;;;;;5.28;100.00;100451.02;106384;1278;66763;-80
2022/11/13 05:51:29;;;;;;;80.70;34.20;;;;;;;5.26;100.00;100452.66;106304;1288;61087;-79
2022/11/13 05:53:56;;;;;;;77.70;32.90;;;;;;;5.27;100.00;100449.13;106340;1285;71732;-80
2022/11/13 05:56:27;;;;;;;76.40;33.30;;;;;;;5.28;100.00;100449.09;106331;1285;59903;-79
2022/11/13 05:58:55;;;;;;;81.40;34.90;;;;;;;5.29;100.00;100448.38;106111;1287;59849;-79
2022/11/13 06:01:23;;;;;;;73.90;33.40;;;;;;;5.30;100.00;100455.24;106024;1287;66930;-79
2022/11/13 06:03:50;;;;;;;79.20;33.20;;;;;;;5.29;100.00;100449.79;106411;1282;61090;-80
2022/11/13 06:06:21;;;;;;;78.50;33.00;;;;;;;5.28;100.00;100446.46;106098;1285;64938;-79
2022/11/13 06:08:49;;;;;;;70.30;32.30;;;;;;;5.26;100.00;100443.85;106318;1286;60828;-80
2022/11/13 06:11:19;;;;;;;67.70;29.70;;;;;;;5.25;100.00;100444.03;106360;1284;59564;-80
2022/11/13 06:13:46;;;;;;;;;;;;;;;5.26;100.00;100448.25;106365;1286;67743;-80
2022/11/13 06:16:15;;;;;;;72.20;32.20;;;;;;;5.25;100.00;100449.86;106384;1286;59971;-80
2022/11/13 06:18:43;;;;;;;78.30;33.30;;;;;;;5.24;100.00;100450.23;106253;1294;64929;-80
2022/11/13 06:21:17;;;;;;;75.00;34.50;;;;;;;5.25;100.00;100445.30;106293;1284;60133;-80
2022/11/13 06:23:44;;;;;;;74.80;33.40;;;;;;;5.25;100.00;100445.45;106312;1286;59640;-79
2022/11/13 06:26:29;;;;;;;73.20;35.90;;;;;;;5.25;100.00;100447.20;106310;1285;67998;-79
2022/11/13 06:28:56;;;;;;;68.40;33.50;;;;;;;5.26;100.00;100439.27;106339;1286;61378;-81
2022/11/13 06:31:25;;;;;;;63.10;30.90;;;;;;;5.28;100.00;100438.52;106315;1286;65050;-79
2022/11/13 06:33:53;;;;;;;74.30;33.20;;;;;;;5.28;100.00;100435.89;106293;1278;60045;-78
2022/11/13 06:36:21;;;;;;;69.20;33.60;;;;;;;5.28;100.00;100439.20;106309;1285;59799;-79
2022/11/13 06:38:48;;;;;;;64.70;32.30;;;;;;;5.29;100.00;100432.86;106309;1282;66923;-80
2022/11/13 06:41:18;;;;;;;79.60;36.90;;;;;;;5.30;100.00;100428.62;106319;1285;60004;-80
2022/11/13 06:43:46;;;;;;;73.70;32.70;;;;;;;5.30;100.00;100425.61;106339;1292;65288;-81
2022/11/13 06:46:24;;;;;;;72.40;29.30;;;;;;;5.30;100.00;100429.67;106327;1285;59770;-80
2022/11/13 06:48:51;;;;;;;82.80;29.10;;;;;;;5.27;100.00;100428.85;106317;1278;59781;-79
2022/11/13 06:51:24;;;;;;;76.90;26.00;;;;;;;5.22;100.00;100431.07;106003;1298;67122;-80
2022/11/13 06:53:50;;;;;;;68.70;29.40;;;;;;;5.20;100.00;100435.36;106323;1284;60242;-79
2022/11/13 06:56:18;;;;;;;73.70;29.80;;;;;;;5.20;100.00;100432.91;106316;1285;63757;-79
2022/11/13 06:58:44;;;;;;;61.40;29.30;;;;;;;5.20;100.00;100430.25;106309;1291;59744;-80
2022/11/13 07:01:22;;;;;;;67.80;26.30;;;;;;;5.18;100.00;100432.04;106306;1278;61330;-80
2022/11/13 07:03:49;;;;;;;70.00;28.10;;;;;;;5.20;100.00;100438.52;106315;1284;68098;-78
2022/11/13 07:06:18;;;;;;;80.00;26.50;;;;;;;5.24;100.00;100439.14;106129;1289;61050;-81
2022/11/13 07:08:45;;;;;;;77.20;25.50;;;;;;;5.25;100.00;100434.73;106319;1285;64175;-79
2022/11/13 07:11:15;;;;;;;89.70;27.10;;;;;;;5.24;100.00;100430.86;106340;1278;59766;-80
2022/11/13 07:13:42;;;;;;;83.60;26.40;;;;;;;5.24;100.00;100425.75;106309;1285;59732;-80
2022/11/13 07:16:10;;;;;;;81.50;28.10;;;;;;;5.24;100.00;100426.63;106312;1293;65423;-80
2022/11/13 07:18:38;;;;;;;83.70;26.20;;;;;;;5.25;100.00;100428.36;106367;1286;69864;-79
2022/11/13 07:21:06;;;;;;;77.70;25.80;;;;;;;5.20;100.00;100427.94;106351;1285;65000;-80
2022/11/13 07:23:35;;;;;;;125.10;26.40;;;;;;;5.19;100.00;100427.64;106366;1285;59748;-81
2022/11/13 07:26:03;;;;;;;66.30;26.70;;;;;;;5.21;100.00;100421.42;106342;1284;59524;-79
2022/11/13 07:28:30;;;;;;;72.50;26.90;;;;;;;5.26;100.00;100419.37;106115;1288;65611;-80
2022/11/13 07:30:57;;;;;;;96.00;26.50;;;;;;;5.30;100.00;100419.99;106060;1289;59836;-80
2022/11/13 07:33:25;;;;;;;78.40;27.70;;;;;;;5.32;100.00;100417.48;106069;1289;64148;-78
2022/11/13 07:35:53;;;;;;;89.70;25.60;;;;;;;5.33;100.00;100415.70;106050;1297;59782;-80
2022/11/13 07:38:20;;;;;;;107.60;26.70;;;;;;;5.34;100.00;100413.02;106024;1295;59596;-80
2022/11/13 07:40:47;;;;;;;68.20;26.30;;;;;;;5.35;100.00;100412.13;106056;1288;66962;-79
2022/11/13 07:43:13;;;;;;;91.80;26.80;;;;;;;5.36;100.00;100420.36;105769;1293;68139;-79
2022/11/13 07:45:40;;;;;;;62.50;24.00;;;;;;;5.42;100.00;100419.89;106055;1289;64890;-80
2022/11/13 07:48:06;;;;;;;79.60;26.40;;;;;;;5.44;100.00;100423.35;106060;1288;59856;-80
2022/11/13 07:50:36;;;;;;;78.70;27.10;;;;;;;5.44;100.00;100424.77;105974;1286;60620;-80
2022/11/13 07:53:06;;;;;;;70.00;24.80;;;;;;;5.44;100.00;100426.73;106075;1287;67778;-79
2022/11/13 07:55:34;;;;;;;85.20;35.20;;;;;;;5.40;100.00;100427.69;105917;1289;67852;-80
2022/11/13 07:58:02;;;;;;;156.50;73.60;;;;;;;5.44;100.00;100430.77;106082;1288;71693;-81
2022/11/13 08:00:31;;;;;;;71.00;29.30;;;;;;;5.50;100.00;100429.77;106088;1282;59654;-80
2022/11/13 08:03:07;;;;;;;55.50;26.90;;;;;;;5.54;100.00;100431.25;106445;1285;59474;-79
2022/11/13 08:05:34;;;;;;;72.90;31.10;;;;;;;5.55;100.00;100438.98;106277;1288;67011;-80
2022/11/13 08:08:02;;;;;;;67.50;29.10;;;;;;;5.58;100.00;100438.73;106453;1282;59787;-80
2022/11/13 08:10:29;;;;;;;71.20;34.00;;;;;;;5.60;100.00;100437.46;106108;1285;65168;-80
2022/11/13 08:13:01;;;;;;;63.40;27.90;;;;;;;5.63;100.00;100439.66;106392;1278;59663;-81
2022/11/13 08:15:28;;;;;;;58.30;29.10;;;;;;;5.70;100.00;100438.98;106481;1282;59449;-80
2022/11/13 08:17:57;;;;;;;61.70;27.10;;;;;;;5.79;100.00;100435.42;106527;1278;68049;-79
2022/11/13 08:20:25;;;;;;;64.60;28.30;;;;;;;5.84;100.00;100433.35;106381;1287;59690;-80
2022/11/13 08:22:55;;;;;;;71.00;39.10;;;;;;;5.82;100.00;100432.52;106526;1278;72621;-79
2022/11/13 08:25:21;;;;;;;106.40;70.20;;;;;;;5.84;100.00;100431.77;106289;1280;59782;-79
2022/11/13 08:27:48;;;;;;;83.10;45.60;;;;;;;5.87;100.00;100427.82;106495;1278;59577;-81
2022/11/13 08:30:15;;;;;;;80.40;61.70;;;;;;;5.90;100.00;100427.89;106732;1278;67285;-80
2022/11/13 08:32:42;;;;;;;73.20;40.40;;;;;;;5.96;100.00;100423.56;106688;1278;59760;-82
2022/11/13 08:35:09;;;;;;;78.10;34.20;;;;;;;6.00;100.00;100421.52;106628;1277;62732;-80
2022/11/13 08:37:36;;;;;;;62.90;30.40;;;;;;;6.04;100.00;100422.66;106555;1285;59710;-80
2022/11/13 08:40:03;;;;;;;65.50;31.50;;;;;;;6.06;100.00;100424.91;106485;1279;59967;-81
2022/11/13 08:42:30;;;;;;;64.60;34.10;;;;;;;6.03;100.00;100424.44;106339;1281;65344;-80
2022/11/13 08:44:57;;;;;;;63.40;29.10;;;;;;;6.08;100.00;100424.67;106438;1284;61253;-82
2022/11/13 08:47:24;;;;;;;59.90;33.20;;;;;;;6.14;100.00;100423.98;106639;1278;65289;-80
2022/11/13 08:49:51;;;;;;;57.80;32.70;;;;;;;6.21;100.00;100420.10;106589;1285;59581;-80
2022/11/13 08:52:18;;;;;;;55.00;35.30;;;;;;;6.28;100.00;100419.38;106348;1283;59654;-79
2022/11/13 08:54:44;;;;;;;57.70;31.50;;;;;;;6.33;100.00;100419.06;106438;1285;75216;-80
2022/11/13 08:57:11;;;;;;;54.20;35.00;;;;;;;6.37;100.00;100418.09;106524;1285;59989;-82
2022/11/13 08:59:38;;;;;;;56.40;36.30;;;;;;;6.43;100.00;100418.09;106470;1278;65303;-83
2022/11/13 09:02:05;;;;;;;56.00;33.50;;;;;;;6.51;100.00;100421.05;106567;1286;59893;-81
2022/11/13 09:04:32;;;;;;;46.70;28.10;;;;;;;6.60;100.00;100420.11;106584;1285;59037;-81
2022/11/13 09:06:59;;;;;;;45.30;28.40;;;;;;;6.62;100.00;100425.73;106601;1277;65124;-80
2022/11/13 09:09:26;;;;;;;45.30;29.00;;;;;;;6.61;100.00;100427.68;106596;1284;62262;-81
2022/11/13 09:11:52;;;;;;;49.90;29.80;;;;;;;6.57;100.00;100424.59;106606;1285;63880;-81
2022/11/13 09:14:19;;;;;;;48.10;29.80;;;;;;;6.59;100.00;100428.44;106474;1285;59697;-79
2022/11/13 09:16:46;;;;;;;44.80;29.70;;;;;;;6.65;100.00;100430.02;106413;1278;59747;-79
2022/11/13 09:19:13;;;;;;;48.80;32.90;;;;;;;6.77;100.00;100427.40;106617;1277;75015;-80
2022/11/13 09:21:46;;;;;;;52.10;31.00;;;;;;;6.83;100.00;100424.42;106575;1277;61151;-81
2022/11/13 09:24:16;;;;;;;47.50;30.30;;;;;;;6.82;100.00;100422.69;106507;1278;62627;-80
2022/11/13 09:26:48;;;;;;;85.20;65.10;;;;;;;6.80;100.00;100422.71;106131;1281;59969;-80
2022/11/13 09:29:15;;;;;;;52.70;36.90;;;;;;;6.85;100.00;100423.48;106564;1277;58933;-80
2022/11/13 09:31:41;;;;;;;52.60;30.90;;;;;;;6.92;100.00;100420.60;106605;1278;67830;-79
2022/11/13 09:34:08;;;;;;;56.50;28.30;;;;;;;6.99;100.00;100421.65;106401;1285;69986;-79
2022/11/13 09:36:35;;;;;;;50.80;26.70;;;;;;;7.00;100.00;100422.67;106377;1277;72656;-80
2022/11/13 09:39:03;;;;;;;48.10;27.40;;;;;;;7.01;100.00;100426.36;106407;1278;60163;-80
2022/11/13 09:41:51;;;;;;;45.60;26.80;;;;;;;7.00;100.00;100424.09;106404;1281;59644;-80
2022/11/13 09:44:55;;;;;;;49.00;28.90;;;;;;;7.02;100.00;100424.90;106310;1289;75329;-80
2022/11/13 09:47:45;;;;;;;52.80;30.70;;;;;;;7.02;100.00;100427.73;105664;1294;68596;-80
2022/11/13 09:50:32;;;;;;;49.40;29.10;;;;;;;7.03;100.00;100422.77;105701;1293;65108;-80
2022/11/13 09:52:59;;;;;;;49.70;29.00;;;;;;;7.03;100.00;100422.23;105735;1293;59861;-80
2022/11/13 09:55:33;;;;;;;46.50;29.70;;;;;;;7.03;100.00;100419.42;105724;1294;59909;-80
2022/11/13 09:58:32;;;;;;;39.90;27.90;;;;;;;7.08;100.00;100415.35;105447;1295;66896;-82
2022/11/13 10:01:00;;;;;;;41.80;29.80;;;;;;;7.10;100.00;100411.25;105702;1293;69918;-80
2022/11/13 10:03:34;;;;;;;36.40;28.20;;;;;;;7.21;100.00;100413.22;105683;1294;72621;-80
2022/11/13 10:06:36;;;;;;;41.60;26.50;;;;;;;7.30;100.00;100415.95;105741;1294;59726;-80
2022/11/13 10:09:17;;;;;;;37.40;26.50;;;;;;;7.33;100.00;100413.05;105297;1299;59738;-80
2022/11/13 10:11:53;;;;;;;39.00;27.80;;;;;;;7.39;100.00;100411.80;105302;1298;68060;-80
2022/11/13 10:14:22;;;;;;;40.00;27.10;;;;;;;7.41;100.00;100406.95;105302;1298;60383;-81
2022/11/13 10:17:15;;;;;;;33.10;24.60;;;;;;;7.42;100.00;100404.78;105297;1300;63950;-81
2022/11/13 10:19:57;;;;;;;43.80;30.80;;;;;;;7.44;100.00;100401.52;104622;1305;59873;-81
2022/11/13 10:22:33;;;;;;;46.50;35.90;;;;;;;7.44;100.00;100404.55;104639;1305;60196;-79
2022/11/13 10:25:15;;;;;;;43.00;29.50;;;;;;;7.42;100.00;100400.89;105046;1301;65314;-80
2022/11/13 10:27:47;;;;;;;39.20;27.80;;;;;;;7.38;100.00;100398.02;105211;1298;60161;-80
2022/11/13 10:30:16;;;;;;;42.50;29.10;;;;;;;7.40;100.00;100398.99;105191;1302;65271;-80
2022/11/13 10:32:44;;;;;;;35.80;25.90;;;;;;;7.45;100.00;100398.69;105235;1299;59819;-80
2022/11/13 10:35:11;;;;;;;51.00;41.90;;;;;;;7.49;100.00;100396.62;105205;1292;59927;-80
2022/11/13 10:37:59;;;;;;;39.20;29.60;;;;;;;7.56;100.00;100401.69;105245;1300;59725;-78
2022/11/13 10:40:30;;;;;;;38.20;28.50;;;;;;;7.66;100.00;100399.25;105225;1299;60112;-81
2022/11/13 10:43:24;;;;;;;40.80;28.30;;;;;;;7.75;100.00;100397.73;105234;1292;63909;-80
2022/11/13 10:45:59;;;;;;;40.70;29.70;;;;;;;7.81;100.00;100396.45;105047;1302;59716;-80
2022/11/13 10:48:30;;;;;;;40.90;29.60;;;;;;;7.87;100.00;100396.10;104990;1302;59769;-79
2022/11/13 10:51:17;;;;;;;43.70;29.60;;;;;;;7.92;100.00;100393.96;105202;1307;67996;-78
2022/11/13 10:53:43;;;;;;;43.30;30.10;;;;;;;7.97;100.00;100391.34;105252;1303;68909;-81
2022/11/13 10:56:26;;;;;;;41.50;30.70;;;;;;;7.95;100.00;100388.39;105155;1300;72419;-80
2022/11/13 10:59:09;;;;;;;41.50;28.20;;;;;;;8.00;100.00;100382.38;105662;1294;59799;-80
2022/11/13 11:01:37;;;;;;;46.90;30.00;;;;;;;7.88;100.00;100381.52;105676;1294;59850;-81
2022/11/13 11:04:12;;;;;;;55.00;34.90;;;;;;;7.77;100.00;100382.25;105662;1296;66750;-80
2022/11/13 11:06:40;;;;;;;49.80;33.20;;;;;;;7.71;100.00;100382.27;105690;1294;69992;-79
2022/11/13 11:09:12;;;;;;;48.60;32.80;;;;;;;7.69;100.00;100381.83;105705;1278;65336;-79